createdAt,value
2019-03-27T00:00:32.997Z,1.98
2019-03-27T00:01:32.970Z,2.04
2019-03-27T00:02:32.963Z,2.09
2019-03-27T00:03:32.952Z,2.06
2019-03-27T00:04:32.936Z,2.09
2019-03-27T00:05:32.927Z,2.09
2019-03-27T00:06:32.933Z,2.13
2019-03-27T00:07:32.907Z,2.08
2019-03-27T00:08:32.898Z,2.13
2019-03-27T00:09:32.888Z,2.11
2019-03-27T00:10:32.879Z,2.06
2019-03-27T00:11:32.876Z,1.98
2019-03-27T00:12:32.955Z,1.92
2019-03-27T00:13:32.842Z,2.01
2019-03-27T00:14:32.834Z,1.97
2019-03-27T00:15:32.823Z,1.97
2019-03-27T00:16:32.818Z,1.97
2019-03-27T00:17:32.806Z,1.98
2019-03-27T00:18:32.812Z,1.94
2019-03-27T00:19:32.780Z,1.94
2019-03-27T00:20:32.775Z,1.90
2019-03-27T00:21:32.763Z,1.78
2019-03-27T00:22:32.897Z,1.76
2019-03-27T00:23:32.741Z,1.78
2019-03-27T00:24:32.773Z,1.75
2019-03-27T00:25:32.719Z,1.72
2019-03-27T00:26:32.712Z,1.74
2019-03-27T00:27:32.703Z,1.69
2019-03-27T00:28:32.694Z,1.74
2019-03-27T00:29:32.678Z,1.69
2019-03-27T00:30:32.683Z,1.74
2019-03-27T00:31:32.655Z,1.76
2019-03-27T00:32:32.648Z,1.83
2019-03-27T00:33:32.638Z,1.78
2019-03-27T00:34:32.632Z,1.86
2019-03-27T00:35:32.617Z,1.71
2019-03-27T00:36:32.623Z,1.71
2019-03-27T00:37:32.600Z,1.69
2019-03-27T00:38:32.591Z,1.71
2019-03-27T00:39:32.575Z,1.66
2019-03-27T00:40:32.572Z,1.72
2019-03-27T00:41:32.555Z,1.58
2019-03-27T00:42:32.562Z,1.58
2019-03-27T00:43:32.537Z,1.54
2019-03-27T00:44:32.524Z,1.64
2019-03-27T00:45:32.514Z,1.61
2019-03-27T00:46:32.511Z,1.58
2019-03-27T00:47:32.544Z,1.57
2019-03-27T00:48:32.505Z,1.61
2019-03-27T00:49:32.472Z,1.46
2019-03-27T00:50:32.459Z,1.60
2019-03-27T00:51:32.450Z,1.60
2019-03-27T00:52:32.440Z,1.61
2019-03-27T00:53:32.429Z,1.48
2019-03-27T00:54:32.437Z,1.57
2019-03-27T00:55:32.409Z,1.46
2019-03-27T00:56:32.396Z,1.47
2019-03-27T00:57:32.387Z,1.50
2019-03-27T00:58:32.380Z,1.44
2019-03-27T00:59:32.367Z,1.38
2019-03-27T01:00:32.374Z,1.40
2019-03-27T01:01:32.348Z,1.47
2019-03-27T01:02:32.338Z,1.44
2019-03-27T01:03:32.326Z,1.40
2019-03-27T01:04:32.385Z,1.38
2019-03-27T01:05:32.305Z,1.42
2019-03-27T01:06:32.310Z,1.32
2019-03-27T01:07:32.287Z,1.39
2019-03-27T01:08:32.274Z,1.32
2019-03-27T01:09:32.265Z,1.28
2019-03-27T01:10:32.255Z,1.18
2019-03-27T01:11:32.242Z,1.12
2019-03-27T01:12:32.248Z,1.21
2019-03-27T01:13:32.220Z,1.26
2019-03-27T01:14:32.213Z,1.24
2019-03-27T01:15:39.608Z,1.15
2019-03-27T01:16:33.193Z,1.21
2019-03-27T01:17:32.176Z,1.21
2019-03-27T01:18:32.186Z,1.21
2019-03-27T01:19:32.161Z,1.14
2019-03-27T01:20:32.154Z,1.14
2019-03-27T01:21:32.145Z,1.12
2019-03-27T01:22:32.125Z,1.15
2019-03-27T01:23:32.118Z,1.15
2019-03-27T01:24:32.125Z,1.07
2019-03-27T01:25:32.093Z,1.07
2019-03-27T01:26:32.083Z,1.07
2019-03-27T01:27:35.410Z,1.11
2019-03-27T01:28:32.067Z,1.17
2019-03-27T01:29:32.049Z,1.14
2019-03-27T01:30:32.067Z,1.12
2019-03-27T01:31:32.033Z,1.12
2019-03-27T01:32:32.020Z,1.15
2019-03-27T01:33:32.010Z,1.14
2019-03-27T01:34:32.004Z,1.12
2019-03-27T01:35:31.989Z,1.18
2019-03-27T01:36:32.001Z,1.15
2019-03-27T01:37:31.974Z,1.15
2019-03-27T01:38:31.959Z,1.12
2019-03-27T01:39:31.950Z,1.17
2019-03-27T01:40:31.940Z,1.03
2019-03-27T01:41:31.928Z,1.03
2019-03-27T01:42:31.952Z,1.04
2019-03-27T01:43:31.908Z,1.04
2019-03-27T01:44:31.898Z,0.90
2019-03-27T01:45:31.886Z,0.94
2019-03-27T01:46:31.876Z,1.00
2019-03-27T01:47:31.866Z,0.96
2019-03-27T01:48:31.869Z,0.89
2019-03-27T01:49:31.843Z,0.94
2019-03-27T01:50:31.835Z,0.90
2019-03-27T01:51:31.823Z,0.94
2019-03-27T01:52:31.818Z,0.86
2019-03-27T01:53:31.801Z,0.97
2019-03-27T01:54:31.834Z,0.94
2019-03-27T01:55:31.785Z,0.89
2019-03-27T01:56:31.772Z,0.92
2019-03-27T01:57:31.756Z,0.82
2019-03-27T01:58:31.750Z,0.92
2019-03-27T01:59:31.737Z,0.85
2019-03-27T02:00:31.775Z,0.82
2019-03-27T02:01:31.717Z,0.82
2019-03-27T02:02:31.705Z,0.81
2019-03-27T02:03:31.702Z,0.79
2019-03-27T02:04:31.686Z,0.81
2019-03-27T02:05:31.680Z,0.78
2019-03-27T02:06:31.688Z,0.78
2019-03-27T02:07:31.657Z,0.75
2019-03-27T02:08:31.646Z,0.79
2019-03-27T02:09:31.634Z,0.76
2019-03-27T02:10:31.625Z,0.72
2019-03-27T02:11:31.610Z,0.75
2019-03-27T02:12:31.629Z,0.82
2019-03-27T02:13:31.616Z,0.81
2019-03-27T02:14:31.582Z,0.86
2019-03-27T02:15:31.571Z,0.86
2019-03-27T02:16:31.566Z,0.78
2019-03-27T02:17:31.549Z,0.85
2019-03-27T02:18:31.574Z,0.93
2019-03-27T02:19:31.537Z,0.82
2019-03-27T02:20:31.517Z,0.89
2019-03-27T02:21:31.511Z,0.90
2019-03-27T02:22:31.501Z,0.85
2019-03-27T02:23:31.492Z,0.81
2019-03-27T02:24:31.498Z,0.82
2019-03-27T02:25:31.470Z,0.76
2019-03-27T02:26:31.457Z,0.81
2019-03-27T02:27:31.450Z,0.79
2019-03-27T02:28:31.440Z,0.81
2019-03-27T02:29:31.428Z,0.78
2019-03-27T02:30:31.442Z,0.76
2019-03-27T02:31:31.416Z,0.75
2019-03-27T02:32:31.401Z,0.79
2019-03-27T02:33:31.386Z,0.81
2019-03-27T02:34:31.378Z,0.75
2019-03-27T02:35:31.364Z,0.74
2019-03-27T02:36:31.377Z,0.66
2019-03-27T02:37:31.354Z,0.75
2019-03-27T02:38:31.338Z,0.72
2019-03-27T02:39:31.324Z,0.76
2019-03-27T02:40:31.311Z,0.72
2019-03-27T02:41:31.301Z,0.64
2019-03-27T02:42:31.314Z,0.69
2019-03-27T02:43:31.290Z,0.67
2019-03-27T02:44:31.271Z,0.72
2019-03-27T02:45:31.268Z,0.67
2019-03-27T02:46:31.252Z,0.63
2019-03-27T02:47:31.247Z,0.64
2019-03-27T02:48:31.258Z,0.57
2019-03-27T02:49:31.222Z,0.57
2019-03-27T02:50:31.216Z,0.56
2019-03-27T02:51:31.199Z,0.39
2019-03-27T02:52:31.192Z,0.45
2019-03-27T02:53:31.183Z,0.41
2019-03-27T02:54:31.211Z,0.50
2019-03-27T02:55:31.163Z,0.38
2019-03-27T02:56:31.152Z,0.39
2019-03-27T02:57:31.142Z,0.38
2019-03-27T02:58:31.133Z,0.32
2019-03-27T02:59:31.114Z,0.31
2019-03-27T03:00:31.139Z,0.27
2019-03-27T03:01:31.106Z,0.16
2019-03-27T03:02:31.085Z,0.10
2019-03-27T03:03:31.104Z,0.16
2019-03-27T03:04:31.070Z,0.19
2019-03-27T03:05:31.058Z,0.14
2019-03-27T03:06:31.061Z,0.23
2019-03-27T03:07:31.035Z,0.21
2019-03-27T03:08:31.030Z,0.21
2019-03-27T03:09:31.014Z,0.16
2019-03-27T03:10:31.006Z,0.14
2019-03-27T03:11:30.998Z,0.10
2019-03-27T03:12:31.482Z,0.16
2019-03-27T03:13:30.978Z,0.13
2019-03-27T03:14:30.973Z,0.09
2019-03-27T03:15:30.957Z,0.09
2019-03-27T03:16:42.152Z,0.09
2019-03-27T03:17:31.945Z,0.13
2019-03-27T03:18:30.933Z,0.13
2019-03-27T03:19:30.915Z,0.09
2019-03-27T03:20:30.900Z,0.09
2019-03-27T03:21:30.893Z,0.09
2019-03-27T03:22:30.884Z,0.03
2019-03-27T03:23:30.889Z,-0.01
2019-03-27T03:24:30.869Z,0.02
2019-03-27T03:25:30.848Z,-0.04
2019-03-27T03:26:30.848Z,-0.12
2019-03-27T03:27:30.834Z,-0.09
2019-03-27T03:28:30.823Z,-0.05
2019-03-27T03:29:30.843Z,-0.07
2019-03-27T03:30:30.796Z,-0.09
2019-03-27T03:31:30.789Z,-0.04
2019-03-27T03:32:30.777Z,-0.02
2019-03-27T03:33:30.767Z,-0.12
2019-03-27T03:34:30.754Z,-0.07
2019-03-27T03:35:30.765Z,-0.05
2019-03-27T03:36:30.735Z,-0.10
2019-03-27T03:37:30.732Z,-0.02
2019-03-27T03:38:30.718Z,-0.07
2019-03-27T03:39:30.708Z,-0.02
2019-03-27T03:40:30.695Z,-0.04
2019-03-27T03:41:30.703Z,-0.01
2019-03-27T03:42:30.674Z,-0.09
2019-03-27T03:43:30.668Z,-0.19
2019-03-27T03:44:30.665Z,-0.16
2019-03-27T03:45:30.645Z,-0.07
2019-03-27T03:46:30.636Z,-0.09
2019-03-27T03:47:30.641Z,-0.16
2019-03-27T03:48:30.618Z,-0.16
2019-03-27T03:49:30.605Z,-0.12
2019-03-27T03:50:30.592Z,-0.13
2019-03-27T03:51:30.581Z,-0.15
2019-03-27T03:52:30.573Z,-0.15
2019-03-27T03:53:30.578Z,-0.15
2019-03-27T03:54:30.549Z,-0.22
2019-03-27T03:55:30.541Z,-0.19
2019-03-27T03:56:30.531Z,-0.02
2019-03-27T03:57:30.522Z,-0.05
2019-03-27T03:58:30.517Z,-0.09
2019-03-27T03:59:30.520Z,-0.10
2019-03-27T04:00:30.490Z,-0.04
2019-03-27T04:01:30.479Z,0.02
2019-03-27T04:02:30.463Z,-0.10
2019-03-27T04:03:30.454Z,-0.09
2019-03-27T04:04:30.452Z,-0.02
2019-03-27T04:05:30.475Z,-0.12
2019-03-27T04:06:30.426Z,-0.04
2019-03-27T04:07:30.417Z,-0.19
2019-03-27T04:08:30.408Z,-0.20
2019-03-27T04:09:30.404Z,-0.16
2019-03-27T04:10:30.390Z,-0.19
2019-03-27T04:11:30.398Z,-0.20
2019-03-27T04:12:30.361Z,-0.23
2019-03-27T04:13:30.361Z,-0.23
2019-03-27T04:14:30.349Z,-0.20
2019-03-27T04:15:30.337Z,-0.18
2019-03-27T04:16:30.328Z,-0.20
2019-03-27T04:17:30.333Z,-0.18
2019-03-27T04:18:30.305Z,-0.20
2019-03-27T04:19:30.295Z,-0.19
2019-03-27T04:20:30.301Z,-0.18
2019-03-27T04:21:30.278Z,-0.22
2019-03-27T04:22:30.263Z,-0.18
2019-03-27T04:23:30.265Z,-0.13
2019-03-27T04:24:30.251Z,-0.19
2019-03-27T04:25:53.621Z,-0.18
2019-03-27T04:26:33.486Z,-0.16
2019-03-27T04:27:30.211Z,-0.15
2019-03-27T04:28:30.204Z,-0.10
2019-03-27T04:29:30.209Z,-0.19
2019-03-27T04:30:30.180Z,-0.19
2019-03-27T04:31:30.172Z,-0.22
2019-03-27T04:32:30.161Z,-0.28
2019-03-27T04:33:30.155Z,-0.22
2019-03-27T04:34:30.134Z,-0.23
2019-03-27T04:35:30.164Z,-0.28
2019-03-27T04:36:30.118Z,-0.28
2019-03-27T04:37:30.111Z,-0.27
2019-03-27T04:38:30.100Z,-0.33
2019-03-27T04:39:30.090Z,-0.18
2019-03-27T04:40:30.073Z,-0.19
2019-03-27T04:41:30.086Z,-0.28
2019-03-27T04:42:30.061Z,-0.13
2019-03-27T04:43:30.051Z,-0.18
2019-03-27T04:44:30.037Z,-0.20
2019-03-27T04:45:30.024Z,-0.19
2019-03-27T04:46:30.013Z,-0.25
2019-03-27T04:47:32.370Z,-0.20
2019-03-27T04:48:38.049Z,-0.25
2019-03-27T04:49:29.980Z,-0.27
2019-03-27T04:50:29.973Z,-0.34
2019-03-27T04:51:29.961Z,-0.36
2019-03-27T04:52:29.952Z,-0.40
2019-03-27T04:53:29.966Z,-0.38
2019-03-27T04:54:29.947Z,-0.30
2019-03-27T04:55:29.921Z,-0.37
2019-03-27T04:56:29.909Z,-0.37
2019-03-27T04:57:29.900Z,-0.33
2019-03-27T04:58:29.901Z,-0.34
2019-03-27T04:59:29.900Z,-0.34
2019-03-27T05:00:29.869Z,-0.41
2019-03-27T05:01:29.856Z,-0.36
2019-03-27T05:02:29.846Z,-0.25
2019-03-27T05:03:29.840Z,-0.31
2019-03-27T05:04:29.833Z,-0.27
2019-03-27T05:05:29.840Z,-0.25
2019-03-27T05:06:29.816Z,-0.33
2019-03-27T05:07:29.793Z,-0.41
2019-03-27T05:08:29.785Z,-0.36
2019-03-27T05:09:29.777Z,-0.36
2019-03-27T05:10:29.778Z,-0.43
2019-03-27T05:11:29.799Z,-0.33
2019-03-27T05:12:29.742Z,-0.41
2019-03-27T05:13:29.734Z,-0.48
2019-03-27T05:14:29.719Z,-0.33
2019-03-27T05:15:29.707Z,-0.37
2019-03-27T05:16:29.709Z,-0.37
2019-03-27T05:17:29.710Z,-0.40
2019-03-27T05:18:29.678Z,-0.31
2019-03-27T05:19:29.668Z,-0.33
2019-03-27T05:20:29.655Z,-0.30
2019-03-27T05:21:29.645Z,-0.25
2019-03-27T05:22:29.685Z,-0.28
2019-03-27T05:23:29.639Z,-0.18
2019-03-27T05:24:29.614Z,-0.19
2019-03-27T05:25:29.611Z,-0.25
2019-03-27T05:26:29.595Z,-0.30
2019-03-27T05:27:29.588Z,-0.18
2019-03-27T05:28:29.581Z,-0.28
2019-03-27T05:29:29.965Z,-0.27
2019-03-27T05:30:29.563Z,-0.19
2019-03-27T05:31:29.544Z,-0.20
2019-03-27T05:32:29.545Z,-0.15
2019-03-27T05:33:32.531Z,-0.19
2019-03-27T05:34:29.518Z,-0.12
2019-03-27T05:35:29.525Z,-0.07
2019-03-27T05:36:29.493Z,-0.10
2019-03-27T05:37:29.493Z,-0.04
2019-03-27T05:38:29.471Z,-0.02
2019-03-27T05:39:29.467Z,-0.07
2019-03-27T05:40:29.461Z,-0.10
2019-03-27T05:41:29.454Z,-0.07
2019-03-27T05:42:29.431Z,-0.12
2019-03-27T05:43:29.418Z,-0.01
2019-03-27T05:44:29.408Z,0.01
2019-03-27T05:45:29.396Z,0.13
2019-03-27T05:46:29.389Z,0.16
2019-03-27T05:47:29.409Z,0.13
2019-03-27T05:48:29.367Z,0.20
2019-03-27T05:49:29.364Z,0.13
2019-03-27T05:50:29.349Z,0.31
2019-03-27T05:51:29.341Z,0.44
2019-03-27T05:52:29.346Z,0.37
2019-03-27T05:53:29.344Z,0.35
2019-03-27T05:54:29.315Z,0.37
2019-03-27T05:55:29.297Z,0.48
2019-03-27T05:56:29.284Z,0.48
2019-03-27T05:57:29.273Z,0.56
2019-03-27T05:58:29.278Z,0.64
2019-03-27T05:59:29.274Z,0.93
2019-03-27T06:00:29.328Z,1.12
2019-03-27T06:01:29.232Z,1.54
2019-03-27T06:02:29.224Z,1.90
2019-03-27T06:03:29.211Z,2.48
2019-03-27T06:04:29.211Z,2.70
2019-03-27T06:05:29.211Z,2.88
2019-03-27T06:06:29.189Z,3.14
2019-03-27T06:07:29.171Z,3.26
2019-03-27T06:08:29.160Z,3.19
2019-03-27T06:09:29.160Z,3.20
2019-03-27T06:10:29.138Z,3.34
2019-03-27T06:11:29.144Z,3.57
2019-03-27T06:12:29.118Z,3.42
2019-03-27T06:13:29.122Z,3.82
2019-03-27T06:14:29.114Z,3.90
2019-03-27T06:15:29.086Z,4.04
2019-03-27T06:16:29.082Z,4.17
2019-03-27T06:17:29.105Z,4.08
2019-03-27T06:18:29.061Z,4.28
2019-03-27T06:19:29.044Z,4.03
2019-03-27T06:20:29.035Z,4.33
2019-03-27T06:21:29.030Z,4.48
2019-03-27T06:22:29.031Z,4.38
2019-03-27T06:23:29.028Z,4.44
2019-03-27T06:24:28.993Z,4.38
2019-03-27T06:25:28.995Z,4.14
2019-03-27T06:26:28.986Z,4.00
2019-03-27T06:27:28.966Z,4.29
2019-03-27T06:28:28.951Z,4.72
2019-03-27T06:29:28.965Z,4.57
2019-03-27T06:30:28.930Z,4.72
2019-03-27T06:31:28.923Z,4.78
2019-03-27T06:32:28.913Z,5.00
2019-03-27T06:33:28.964Z,5.24
2019-03-27T06:34:28.908Z,5.26
2019-03-27T06:35:28.903Z,5.27
2019-03-27T06:36:28.867Z,5.46
2019-03-27T06:37:28.856Z,5.72
2019-03-27T06:38:28.857Z,6.34
2019-03-27T06:39:28.841Z,6.02
2019-03-27T06:40:28.822Z,6.43
2019-03-27T06:41:28.836Z,6.47
2019-03-27T06:42:28.806Z,6.55
2019-03-27T06:43:28.791Z,6.68
2019-03-27T06:44:28.782Z,6.09
2019-03-27T06:45:28.768Z,6.03
2019-03-27T06:46:28.768Z,5.78
2019-03-27T06:47:28.790Z,5.57
2019-03-27T06:48:28.748Z,5.24
2019-03-27T06:49:28.729Z,5.54
2019-03-27T06:50:28.717Z,6.15
2019-03-27T06:51:39.439Z,6.62
2019-03-27T06:52:29.715Z,6.31
2019-03-27T06:53:28.684Z,6.36
2019-03-27T06:54:28.675Z,6.80
2019-03-27T06:55:28.662Z,7.03
2019-03-27T06:56:28.652Z,7.05
2019-03-27T06:57:28.649Z,7.15
2019-03-27T06:58:28.652Z,7.48
2019-03-27T06:59:28.620Z,7.41
2019-03-27T07:00:28.613Z,7.31
2019-03-27T07:01:28.598Z,7.63
2019-03-27T07:02:29.034Z,8.06
2019-03-27T07:03:28.578Z,7.98
2019-03-27T07:04:28.624Z,7.52
2019-03-27T07:05:28.578Z,7.55
2019-03-27T07:06:28.543Z,7.78
2019-03-27T07:07:28.550Z,8.16
2019-03-27T07:08:28.524Z,8.54
2019-03-27T07:09:28.565Z,8.85
2019-03-27T07:10:28.534Z,9.20
2019-03-27T07:11:28.528Z,8.98
2019-03-27T07:12:28.486Z,9.32
2019-03-27T07:13:28.474Z,9.12
2019-03-27T07:14:28.493Z,8.77
2019-03-27T07:15:28.463Z,8.43
2019-03-27T07:16:28.514Z,7.92
2019-03-27T07:17:28.425Z,7.63
2019-03-27T07:18:39.616Z,8.10
2019-03-27T07:19:29.405Z,8.16
2019-03-27T07:20:28.399Z,8.64
2019-03-27T07:21:28.433Z,8.69
2019-03-27T07:22:28.406Z,8.01
2019-03-27T07:23:28.380Z,8.03
2019-03-27T07:24:28.357Z,8.40
2019-03-27T07:25:28.361Z,8.60
2019-03-27T07:26:28.359Z,8.52
2019-03-27T07:27:28.344Z,8.42
2019-03-27T07:28:28.658Z,8.92
2019-03-27T07:29:28.297Z,9.14
2019-03-27T07:30:28.325Z,9.29
2019-03-27T07:31:28.306Z,9.42
2019-03-27T07:32:28.275Z,8.58
2019-03-27T07:33:28.264Z,8.79
2019-03-27T07:34:28.266Z,8.19
2019-03-27T07:35:28.245Z,8.47
2019-03-27T07:36:28.245Z,8.87
2019-03-27T07:37:28.212Z,9.03
2019-03-27T07:38:28.215Z,8.53
2019-03-27T07:39:28.193Z,8.72
2019-03-27T07:40:28.224Z,8.46
2019-03-27T07:41:28.227Z,8.11
2019-03-27T07:42:29.000Z,8.21
2019-03-27T07:43:28.198Z,8.49
2019-03-27T07:44:28.154Z,9.05
2019-03-27T07:45:28.153Z,9.74
2019-03-27T07:46:28.135Z,9.23
2019-03-27T07:47:28.102Z,9.34
2019-03-27T07:48:28.114Z,9.63
2019-03-27T07:49:28.083Z,10.88
2019-03-27T07:50:28.078Z,11.70
2019-03-27T07:51:28.074Z,11.67
2019-03-27T07:52:28.067Z,10.98
2019-03-27T07:53:28.179Z,9.71
2019-03-27T07:54:28.051Z,9.88
2019-03-27T07:55:28.030Z,9.77
2019-03-27T07:56:28.035Z,9.96
2019-03-27T07:57:27.995Z,10.39
2019-03-27T07:58:28.345Z,10.91
2019-03-27T07:59:27.979Z,10.42
2019-03-27T08:00:27.984Z,9.71
2019-03-27T08:01:27.957Z,9.04
2019-03-27T08:02:27.969Z,9.67
2019-03-27T08:03:27.931Z,10.28
2019-03-27T08:04:28.042Z,11.03
2019-03-27T08:05:27.920Z,11.03
2019-03-27T08:06:27.901Z,10.73
2019-03-27T08:07:27.905Z,10.25
2019-03-27T08:08:27.876Z,10.25
2019-03-27T08:09:27.903Z,11.59
2019-03-27T08:10:27.875Z,12.71
2019-03-27T08:11:27.996Z,13.39
2019-03-27T08:12:27.854Z,12.95
2019-03-27T08:13:27.852Z,11.42
2019-03-27T08:14:27.807Z,11.61
2019-03-27T08:15:27.809Z,11.41
2019-03-27T08:16:27.820Z,11.61
2019-03-27T08:17:27.793Z,11.21
2019-03-27T08:18:27.780Z,11.24
2019-03-27T08:19:27.764Z,12.61
2019-03-27T08:20:27.764Z,13.39
2019-03-27T08:21:31.064Z,13.60
2019-03-27T08:22:27.745Z,14.03
2019-03-27T08:23:27.719Z,14.94
2019-03-27T08:24:27.703Z,15.31
2019-03-27T08:25:27.718Z,14.30
2019-03-27T08:26:27.681Z,13.17
2019-03-27T08:27:27.677Z,12.88
2019-03-27T08:28:27.766Z,13.78
2019-03-27T08:29:27.691Z,13.75
2019-03-27T08:30:27.652Z,14.79
2019-03-27T08:31:27.641Z,15.55
2019-03-27T08:32:27.625Z,15.04
2019-03-27T08:33:27.617Z,14.52
2019-03-27T08:34:27.610Z,14.28
2019-03-27T08:35:27.589Z,12.74
2019-03-27T08:36:27.580Z,12.37
2019-03-27T08:37:27.565Z,12.58
2019-03-27T08:38:27.550Z,12.29
2019-03-27T08:39:27.541Z,12.84
2019-03-27T08:40:27.544Z,12.52
2019-03-27T08:41:27.515Z,12.56
2019-03-27T08:42:27.556Z,12.78
2019-03-27T08:43:27.496Z,12.62
2019-03-27T08:44:27.502Z,12.40
2019-03-27T08:45:27.476Z,12.95
2019-03-27T08:46:27.482Z,12.99
2019-03-27T08:47:27.490Z,12.13
2019-03-27T08:48:27.471Z,11.82
2019-03-27T08:49:27.432Z,11.88
2019-03-27T08:50:27.432Z,10.25
2019-03-27T08:51:27.440Z,10.46
2019-03-27T08:52:27.486Z,10.28
2019-03-27T08:53:27.394Z,10.35
2019-03-27T08:54:27.408Z,10.41
2019-03-27T08:55:27.375Z,9.93
2019-03-27T08:56:27.359Z,9.45
2019-03-27T08:57:27.343Z,9.32
2019-03-27T08:58:27.370Z,9.57
2019-03-27T08:59:27.350Z,10.72
2019-03-27T09:00:27.327Z,10.08
2019-03-27T09:01:27.331Z,10.26
2019-03-27T09:02:27.306Z,10.54
2019-03-27T09:03:27.298Z,9.77
2019-03-27T09:04:27.301Z,9.55
2019-03-27T09:05:27.288Z,9.23
2019-03-27T09:06:33.504Z,9.11
2019-03-27T09:07:28.296Z,9.11
2019-03-27T09:08:27.229Z,9.01
2019-03-27T09:09:27.246Z,9.09
2019-03-27T09:10:27.327Z,8.79
2019-03-27T09:11:27.197Z,9.00
2019-03-27T09:12:27.183Z,9.42
2019-03-27T09:13:27.175Z,9.71
2019-03-27T09:14:27.185Z,9.95
2019-03-27T09:15:27.171Z,10.07
2019-03-27T09:16:27.236Z,9.80
2019-03-27T09:17:27.186Z,9.77
2019-03-27T09:18:27.155Z,10.25
2019-03-27T09:19:35.461Z,9.71
2019-03-27T09:20:28.105Z,9.78
2019-03-27T09:21:27.090Z,9.78
2019-03-27T09:22:27.116Z,9.82
2019-03-27T09:23:27.075Z,9.67
2019-03-27T09:24:27.055Z,10.32
2019-03-27T09:25:27.047Z,11.89
2019-03-27T09:26:27.039Z,12.69
2019-03-27T09:27:27.026Z,12.65
2019-03-27T09:28:27.039Z,11.86
2019-03-27T09:29:27.082Z,12.56
2019-03-27T09:30:27.007Z,11.27
2019-03-27T09:31:26.994Z,11.10
2019-03-27T09:32:26.968Z,11.00
2019-03-27T09:33:26.958Z,11.09
2019-03-27T09:34:26.984Z,11.12
2019-03-27T09:35:26.939Z,10.32
2019-03-27T09:36:26.933Z,10.08
2019-03-27T09:37:26.939Z,9.84
2019-03-27T09:38:26.923Z,9.74
2019-03-27T09:39:26.894Z,10.25
2019-03-27T09:40:26.895Z,9.85
2019-03-27T09:41:26.876Z,9.93
2019-03-27T09:42:26.865Z,9.62
2019-03-27T09:43:26.867Z,9.50
2019-03-27T09:44:26.840Z,9.85
2019-03-27T09:45:26.842Z,10.03
2019-03-27T09:46:26.878Z,9.84
2019-03-27T09:47:26.842Z,10.59
2019-03-27T09:48:26.798Z,11.45
2019-03-27T09:49:26.790Z,11.21
2019-03-27T09:50:26.833Z,12.33
2019-03-27T09:51:26.793Z,12.95
2019-03-27T09:52:26.777Z,13.66
2019-03-27T09:53:26.751Z,14.11
2019-03-27T09:54:26.732Z,14.53
2019-03-27T09:55:26.723Z,15.47
2019-03-27T09:56:26.714Z,14.16
2019-03-27T09:57:26.714Z,14.08
2019-03-27T09:58:26.710Z,12.77
2019-03-27T09:59:26.682Z,12.92
2019-03-27T10:00:26.668Z,12.59
2019-03-27T10:01:26.664Z,12.22
2019-03-27T10:02:26.668Z,12.95
2019-03-27T10:03:26.641Z,13.69
2019-03-27T10:04:26.654Z,14.09
2019-03-27T10:05:26.619Z,14.21
2019-03-27T10:06:26.654Z,14.09
2019-03-27T10:07:26.625Z,15.12
2019-03-27T10:08:26.601Z,15.08
2019-03-27T10:09:26.584Z,15.05
2019-03-27T10:10:26.604Z,15.13
2019-03-27T10:11:26.549Z,15.04
2019-03-27T10:12:26.539Z,14.28
2019-03-27T10:13:26.526Z,12.59
2019-03-27T10:14:26.533Z,12.88
2019-03-27T10:15:26.521Z,13.11
2019-03-27T10:16:26.528Z,12.43
2019-03-27T10:17:26.486Z,12.13
2019-03-27T10:18:26.478Z,11.78
2019-03-27T10:19:26.466Z,11.84
2019-03-27T10:20:26.456Z,11.60
2019-03-27T10:21:26.463Z,11.13
2019-03-27T10:22:26.491Z,12.65
2019-03-27T10:23:26.420Z,12.16
2019-03-27T10:24:26.423Z,11.67
2019-03-27T10:25:26.427Z,11.12
2019-03-27T10:26:26.410Z,10.57
2019-03-27T10:27:26.395Z,10.38
2019-03-27T10:28:26.437Z,10.33
2019-03-27T10:29:26.356Z,10.11
2019-03-27T10:30:26.347Z,9.84
2019-03-27T10:31:26.368Z,9.99
2019-03-27T10:32:26.346Z,10.26
2019-03-27T10:33:26.337Z,10.26
2019-03-27T10:34:26.351Z,10.32
2019-03-27T10:35:26.308Z,10.67
2019-03-27T10:36:26.284Z,10.67
2019-03-27T10:37:26.270Z,10.52
2019-03-27T10:38:26.292Z,10.42
2019-03-27T10:39:26.260Z,10.69
2019-03-27T10:40:26.302Z,10.88
2019-03-27T10:41:26.228Z,10.79
2019-03-27T10:42:26.230Z,10.67
2019-03-27T10:43:26.205Z,10.32
2019-03-27T10:44:26.224Z,10.55
2019-03-27T10:45:26.192Z,10.84
2019-03-27T10:46:26.211Z,10.97
2019-03-27T10:47:26.173Z,11.38
2019-03-27T10:48:26.152Z,11.43
2019-03-27T10:49:34.537Z,11.38
2019-03-27T10:50:26.131Z,12.52
2019-03-27T10:51:26.121Z,13.39
2019-03-27T10:52:26.122Z,12.91
2019-03-27T10:53:26.099Z,12.84
2019-03-27T10:54:26.090Z,11.75
2019-03-27T10:55:26.098Z,11.51
2019-03-27T10:56:26.074Z,11.68
2019-03-27T10:57:26.058Z,11.94
2019-03-27T10:58:26.086Z,12.29
2019-03-27T10:59:26.041Z,12.71
2019-03-27T11:00:26.022Z,13.06
2019-03-27T11:01:26.021Z,12.70
2019-03-27T11:02:26.000Z,14.24
2019-03-27T11:03:25.991Z,13.73
2019-03-27T11:04:25.999Z,12.00
2019-03-27T11:05:25.973Z,11.59
2019-03-27T11:06:25.958Z,12.15
2019-03-27T11:07:25.948Z,12.28
2019-03-27T11:08:25.939Z,12.40
2019-03-27T11:09:25.979Z,12.04
2019-03-27T11:10:25.936Z,12.70
2019-03-27T11:11:25.904Z,13.35
2019-03-27T11:12:25.896Z,12.98
2019-03-27T11:13:25.885Z,12.61
2019-03-27T11:14:37.138Z,12.91
2019-03-27T11:15:26.881Z,12.66
2019-03-27T11:16:25.852Z,13.35
2019-03-27T11:17:25.843Z,14.71
2019-03-27T11:18:25.831Z,15.45
2019-03-27T11:19:25.825Z,15.40
2019-03-27T11:20:31.383Z,13.01
2019-03-27T11:21:26.811Z,13.94
2019-03-27T11:22:25.796Z,13.72
2019-03-27T11:23:25.778Z,14.27
2019-03-27T11:24:25.768Z,14.87
2019-03-27T11:25:25.755Z,16.22
2019-03-27T11:26:25.742Z,16.04
2019-03-27T11:27:25.742Z,15.58
2019-03-27T11:28:25.725Z,15.41
2019-03-27T11:29:25.711Z,16.21
2019-03-27T11:30:25.700Z,15.53
2019-03-27T11:31:25.696Z,14.41
2019-03-27T11:32:25.679Z,14.87
2019-03-27T11:33:28.778Z,13.97
2019-03-27T11:34:25.656Z,12.51
2019-03-27T11:35:25.649Z,12.33
2019-03-27T11:36:25.641Z,11.51
2019-03-27T11:37:25.627Z,11.52
2019-03-27T11:38:25.623Z,11.48
2019-03-27T11:39:25.621Z,12.53
2019-03-27T11:40:25.592Z,13.70
2019-03-27T11:41:25.583Z,14.30
2019-03-27T11:42:25.576Z,14.12
2019-03-27T11:43:25.563Z,14.06
2019-03-27T11:44:25.555Z,14.42
2019-03-27T11:45:25.557Z,14.09
2019-03-27T11:46:25.528Z,13.73
2019-03-27T11:47:25.519Z,14.24
2019-03-27T11:48:25.511Z,14.36
2019-03-27T11:49:25.497Z,14.80
2019-03-27T11:50:25.485Z,14.45
2019-03-27T11:51:25.487Z,14.93
2019-03-27T11:52:25.464Z,14.48
2019-03-27T11:53:25.451Z,15.41
2019-03-27T11:54:25.448Z,14.08
2019-03-27T11:55:25.432Z,13.44
2019-03-27T11:56:25.438Z,12.71
2019-03-27T11:57:25.423Z,11.94
2019-03-27T11:58:25.401Z,12.65
2019-03-27T11:59:25.387Z,13.19
2019-03-27T12:00:25.378Z,13.17
2019-03-27T12:01:38.728Z,12.43
2019-03-27T12:02:26.375Z,12.22
2019-03-27T12:03:25.346Z,12.07
2019-03-27T12:04:25.333Z,12.38
2019-03-27T12:05:25.323Z,14.11
2019-03-27T12:06:25.314Z,14.77
2019-03-27T12:07:25.301Z,13.91
2019-03-27T12:08:25.304Z,13.17
2019-03-27T12:09:25.285Z,13.14
2019-03-27T12:10:25.273Z,13.36
2019-03-27T12:11:25.261Z,13.13
2019-03-27T12:12:25.315Z,13.35
2019-03-27T12:13:25.241Z,14.77
2019-03-27T12:14:25.246Z,14.33
2019-03-27T12:15:25.222Z,13.36
2019-03-27T12:16:25.205Z,12.80
2019-03-27T12:17:25.199Z,12.83
2019-03-27T12:18:25.183Z,12.96
2019-03-27T12:19:25.175Z,13.68
2019-03-27T12:20:25.177Z,12.80
2019-03-27T12:21:25.151Z,12.31
2019-03-27T12:22:25.142Z,12.88
2019-03-27T12:23:25.132Z,13.02
2019-03-27T12:24:25.120Z,13.75
2019-03-27T12:25:25.112Z,13.83
2019-03-27T12:26:25.122Z,13.17
2019-03-27T12:27:25.087Z,11.88
2019-03-27T12:28:25.077Z,12.38
2019-03-27T12:29:25.068Z,13.70
2019-03-27T12:30:25.058Z,13.91
2019-03-27T12:31:25.053Z,14.41
2019-03-27T12:32:25.247Z,14.33
2019-03-27T12:33:25.038Z,14.33
2019-03-27T12:34:25.015Z,13.76
2019-03-27T12:35:25.002Z,12.91
2019-03-27T12:36:24.989Z,12.94
2019-03-27T12:37:24.985Z,13.39
2019-03-27T12:38:24.989Z,12.88
2019-03-27T12:39:24.956Z,13.95
2019-03-27T12:40:24.952Z,13.42
2019-03-27T12:41:24.939Z,13.14
2019-03-27T12:42:24.925Z,12.96
2019-03-27T12:43:24.919Z,13.48
2019-03-27T12:44:24.922Z,14.16
2019-03-27T12:45:24.893Z,14.71
2019-03-27T12:46:24.883Z,14.33
2019-03-27T12:47:24.871Z,14.21
2019-03-27T12:48:24.861Z,13.75
2019-03-27T12:49:24.851Z,13.02
2019-03-27T12:50:24.874Z,12.61
2019-03-27T12:51:24.827Z,12.31
2019-03-27T12:52:24.817Z,12.41
2019-03-27T12:53:24.807Z,12.36
2019-03-27T12:54:24.796Z,12.18
2019-03-27T12:55:24.785Z,11.98
2019-03-27T12:56:24.792Z,11.84
2019-03-27T12:57:24.762Z,11.76
2019-03-27T12:58:24.753Z,12.00
2019-03-27T12:59:24.740Z,12.26
2019-03-27T13:00:24.733Z,12.38
2019-03-27T13:01:24.720Z,12.34
2019-03-27T13:02:24.810Z,12.41
2019-03-27T13:03:24.698Z,12.48
2019-03-27T13:04:24.686Z,12.33